KGNV/GNV METAR and TAF weather

Enter ICAO airport designator
Station Type Date Time Source
KGNV METAR 2019/08/25 20:53 UTC NOAA

KGNV 252053Z 11010KT 10SM CLR 30/24 A2997 RMK AO2 LTG DSNT NW SLP144 60001 T03000244 58013


Station Type Date Time Source
KGNV Decoded METAR 2019/08/25 20:53 UTC NOAA

Station name not available
Aug 25, 2019 - 04:53 PM EDT / 2019.08.25 2053 UTC
Wind: from the ESE (110 degrees) at 12 MPH (10 KT):0
Visibility: 10 mile(s):0
Sky conditions: clear
Weather: Lightning observed
Temperature: 86.0 F (30.0 C)
Heat index: 95.9 F (35.5 C):1
Dew Point: 75.9 F (24.4 C)
Relative Humidity: 72%
Pressure (altimeter): 29.97 in. Hg (1014 hPa)
Pressure tendency: 0.04 inches (1.3 hPa) lower than three hours ago
ob: KGNV 252053Z 11010KT 10SM CLR 30/24 A2997 RMK AO2 LTG DSNT NW SLP144 60001 T03000244 58013
cycle: 21

Station Type Date Time Source
KGNV TAF 2019/08/25 18:24 UTC NOAA

TAF KGNV 251723Z 2518/2618 06007KT P6SM VCTS SCT030CB BKN050
TEMPO 2519/2523 3SM SHRA BKN030
FM260200 04005KT P6SM FEW025 BKN150 BKN250
FM261400 09007KT P6SM SCT030 BKN250

Example: see airport list